Anzoras — EAZC — position and weather

sailwx.info

Track history (hours):
 
Tides and Currents Weather Stations Pressure Air Temp Water Temp Dewpoint Dewpoint Depression Visibility Wind Speed Wind Dir Waves Ship Positions

Anzoras

Last reported at 2016-Aug-28 00:33 UTC. Time now 2016-Aug-29 07:11 UTC.
Position N 40°21' W 009°49'.

Length 100 m; draft 4.3 m.

Type: Cargo ship. MMSI: 224376000.

Date/timePositionNaut miles runAvg speedWind from/ knotsBaromVisibWave heightAir tempDewpointWater temp
2016-Aug-28 00:33N 40°21' W 009°49'2611.8
2016-Aug-27 22:24N 39°55' W 009°49'1011.6
2016-Aug-27 21:33N 39°45' W 009°49'1110.9
2016-Aug-27 20:33N 39°35' W 009°49'1211.0
2016-Aug-27 19:26N 39°22' W 009°49'1011.5
2016-Aug-27 18:32N 39°12' W 009°50'1111.2
2016-Aug-27 17:33N 39°01' W 009°50'1110.9
2016-Aug-27 16:33N 38°50' W 009°50'1110.7
2016-Aug-27 15:33N 38°39' W 009°49'1111.0
2016-Aug-27 14:32N 38°28' W 009°46'1110.8
2016-Aug-27 13:32N 38°18' W 009°42'1110.6
2016-Aug-27 12:33N 38°08' W 009°40'1110.9
2016-Aug-27 11:33N 37°57' W 009°36'  
2016-Aug-24 18:32N 36°34' W 009°13'1010.2
2016-Aug-24 17:33N 36°40' W 009°23'1110.9
2016-Aug-24 16:33N 36°48' W 009°32'1111.3
2016-Aug-24 15:33N 36°59' W 009°36'1110.9
2016-Aug-24 14:33N 37°10' W 009°39'1111.4
2016-Aug-24 13:33N 37°21' W 009°41'1211.8
2016-Aug-24 12:33N 37°32' W 009°45'1111.5
2016-Aug-24 11:33N 37°43' W 009°48'1211.7
2016-Aug-24 10:34N 37°55' W 009°52'1212.1
2016-Aug-24 09:33N 38°07' W 009°55'1211.5
2016-Aug-24 08:33N 38°18' W 009°58'1211.7
2016-Aug-24 07:33N 38°29' W 010°01'1111.3
2016-Aug-24 06:33N 38°40' W 010°05'2411.1
2016-Aug-24 04:26N 39°04' W 010°05'1011.1
2016-Aug-24 03:33N 39°14' W 010°06'1211.8
2016-Aug-24 02:32N 39°25' W 010°05'52710.7
2016-Aug-22 01:20N 47°51' W 006°40'1111.2
2016-Aug-22 00:19N 48°01' W 006°32'911.9
2016-Aug-21 23:32N 48°09' W 006°26'4511.2
2016-Aug-21 19:30N 48°49' W 005°53'10 8.3
2016-Aug-21 18:18N 48°57' W 005°44'17 8.2
2016-Aug-21 16:17N 49°05' W 005°22'88 9.7
2016-Aug-21 07:11N 49°48' W 003°24'6 7.5
2016-Aug-21 06:26N 49°51' W 003°17'120 8.0
2016-Aug-20 15:32N 50°29' W 000°19'1010.2
2016-Aug-20 14:33N 50°31' W 000°04'55 8.8
2016-Aug-20 08:15N 50°57' E 001°13'912.4
2016-Aug-20 07:33N 51°02' E 001°24'1212.1
2016-Aug-20 06:33N 51°10' E 001°38'1010.5
2016-Aug-20 05:33N 51°19' E 001°48'9 9.4
2016-Aug-20 04:33N 51°27' E 001°55'9 8.5
2016-Aug-20 03:33N 51°34' E 002°04'83 9.2
2016-Aug-19 18:33N 52°56' E 001°55'1211.4
2016-Aug-19 17:30N 53°03' E 001°38'78 9.6
2016-Aug-19 09:24N 54°02' E 000°13'8 9.8
2016-Aug-19 08:33N 54°09' E 000°07'1110.7
2016-Aug-19 07:33N 54°19' E 000°00'1111.0
2016-Aug-19 06:33N 54°29' W 000°07'7311.6
2016-Aug-19 00:14N 55°37' W 000°55'1010.7
2016-Aug-18 23:16N 55°47' W 001°02'89 9.1
2016-Aug-18 13:32N 57°09' W 002°05'0 0.0
2016-Aug-18 11:11N 57°09' W 002°05'0 0.0
2016-Aug-18 10:32N 57°09' W 002°05'0 0.0
2016-Aug-18 03:17N 57°09' W 002°05'0 0.0
2016-Aug-18 02:26N 57°09' W 002°05'0 0.0
2016-Aug-18 01:29N 57°09' W 002°05'  
Track history (hours):
 
Tides and Currents Weather Stations Pressure Air Temp Water Temp Dewpoint Dewpoint Depression Visibility Wind Speed Wind Dir Waves Ship Positions

Anzoras

Last reported at 2016-Aug-28 00:33 UTC. Time now 2016-Aug-29 07:11 UTC.
Position N 40°21' W 009°49'.

Length 100 m; draft 4.3 m.

Type: Cargo ship. MMSI: 224376000.

Date/timePositionNaut miles runAvg speedWind from/ knotsBaromVisibWave heightAir tempDewpointWater temp
2016-Aug-28 00:33N 40°21' W 009°49'2611.8
2016-Aug-27 22:24N 39°55' W 009°49'1011.6
2016-Aug-27 21:33N 39°45' W 009°49'1110.9
2016-Aug-27 20:33N 39°35' W 009°49'1211.0
2016-Aug-27 19:26N 39°22' W 009°49'1011.5
2016-Aug-27 18:32N 39°12' W 009°50'1111.2
2016-Aug-27 17:33N 39°01' W 009°50'1110.9
2016-Aug-27 16:33N 38°50' W 009°50'1110.7
2016-Aug-27 15:33N 38°39' W 009°49'1111.0
2016-Aug-27 14:32N 38°28' W 009°46'1110.8
2016-Aug-27 13:32N 38°18' W 009°42'1110.6
2016-Aug-27 12:33N 38°08' W 009°40'1110.9
2016-Aug-27 11:33N 37°57' W 009°36'  
2016-Aug-24 18:32N 36°34' W 009°13'1010.2
2016-Aug-24 17:33N 36°40' W 009°23'1110.9
2016-Aug-24 16:33N 36°48' W 009°32'1111.3
2016-Aug-24 15:33N 36°59' W 009°36'1110.9
2016-Aug-24 14:33N 37°10' W 009°39'1111.4
2016-Aug-24 13:33N 37°21' W 009°41'1211.8
2016-Aug-24 12:33N 37°32' W 009°45'1111.5
2016-Aug-24 11:33N 37°43' W 009°48'1211.7
2016-Aug-24 10:34N 37°55' W 009°52'1212.1
2016-Aug-24 09:33N 38°07' W 009°55'1211.5
2016-Aug-24 08:33N 38°18' W 009°58'1211.7
2016-Aug-24 07:33N 38°29' W 010°01'1111.3
2016-Aug-24 06:33N 38°40' W 010°05'2411.1
2016-Aug-24 04:26N 39°04' W 010°05'1011.1
2016-Aug-24 03:33N 39°14' W 010°06'1211.8
2016-Aug-24 02:32N 39°25' W 010°05'52710.7
2016-Aug-22 01:20N 47°51' W 006°40'1111.2
2016-Aug-22 00:19N 48°01' W 006°32'911.9
2016-Aug-21 23:32N 48°09' W 006°26'4511.2
2016-Aug-21 19:30N 48°49' W 005°53'10 8.3
2016-Aug-21 18:18N 48°57' W 005°44'17 8.2
2016-Aug-21 16:17N 49°05' W 005°22'88 9.7
2016-Aug-21 07:11N 49°48' W 003°24'6 7.5
2016-Aug-21 06:26N 49°51' W 003°17'120 8.0
2016-Aug-20 15:32N 50°29' W 000°19'1010.2
2016-Aug-20 14:33N 50°31' W 000°04'55 8.8
2016-Aug-20 08:15N 50°57' E 001°13'912.4
2016-Aug-20 07:33N 51°02' E 001°24'1212.1
2016-Aug-20 06:33N 51°10' E 001°38'1010.5
2016-Aug-20 05:33N 51°19' E 001°48'9 9.4
2016-Aug-20 04:33N 51°27' E 001°55'9 8.5
2016-Aug-20 03:33N 51°34' E 002°04'83 9.2
2016-Aug-19 18:33N 52°56' E 001°55'1211.4
2016-Aug-19 17:30N 53°03' E 001°38'78 9.6
2016-Aug-19 09:24N 54°02' E 000°13'8 9.8
2016-Aug-19 08:33N 54°09' E 000°07'1110.7
2016-Aug-19 07:33N 54°19' E 000°00'1111.0
2016-Aug-19 06:33N 54°29' W 000°07'7311.6
2016-Aug-19 00:14N 55°37' W 000°55'1010.7
2016-Aug-18 23:16N 55°47' W 001°02'89 9.1
2016-Aug-18 13:32N 57°09' W 002°05'0 0.0
2016-Aug-18 11:11N 57°09' W 002°05'0 0.0
2016-Aug-18 10:32N 57°09' W 002°05'0 0.0
2016-Aug-18 03:17N 57°09' W 002°05'0 0.0
2016-Aug-18 02:26N 57°09' W 002°05'0 0.0
2016-Aug-18 01:29N 57°09' W 002°05'  

Dump ship's entire track history